createdAt,value
2023-03-07T10:42:58.035Z,8.7
2023-03-07T13:56:33.391Z,6
2023-03-07T14:02:24.860Z,6.3
2023-03-07T14:08:32.371Z,6.2
2023-03-07T14:14:25.360Z,5.9
2023-03-07T14:20:17.193Z,5.9
2023-03-07T14:26:11.749Z,6
2023-03-07T14:32:03.134Z,6.6
2023-03-07T14:37:59.666Z,6.6
2023-03-07T14:43:52.052Z,7.3
2023-03-07T14:49:40.387Z,7.2
2023-03-07T14:55:32.994Z,7.3
2023-03-07T15:01:24.404Z,7.3
2023-03-07T15:07:16.304Z,7.1
2023-03-07T15:13:07.103Z,7.7
2023-03-07T15:18:59.643Z,7.3
2023-03-07T15:24:51.088Z,15
2023-03-07T15:30:45.167Z,19.9
2023-03-07T15:36:36.691Z,13.8
2023-03-07T15:42:42.400Z,11.8
2023-03-07T15:48:33.220Z,14.1
2023-03-07T15:54:23.913Z,11.1
2023-03-07T16:00:18.854Z,11.5
2023-03-07T16:06:11.337Z,11.6
2023-03-07T16:12:04.528Z,11.1
2023-03-07T16:18:02.837Z,11.7
2023-03-07T16:30:02.186Z,13.6
2023-03-07T16:36:04.105Z,10.9
2023-03-07T16:41:55.632Z,8.3
2023-03-07T16:48:42.153Z,6.9
2023-03-07T16:54:33.732Z,6.7
2023-03-07T17:00:51.885Z,7.8
2023-03-07T17:14:30.677Z,7.7
2023-03-07T21:00:02.459Z,14.7
2023-03-07T21:06:25.041Z,14.8
2023-03-07T21:13:02.727Z,13
2023-03-07T21:19:34.347Z,15.1
2023-03-07T21:32:36.227Z,16.9
2023-03-07T23:08:29.430Z,16.5
2023-03-07T23:14:20.421Z,14.6
